createdAt,value
2023-02-22T00:00:59.787Z,44.10
2023-02-22T00:02:11.182Z,37.58
2023-02-22T00:03:16.275Z,35.38
2023-02-22T00:04:21.120Z,44.55
2023-02-22T00:05:24.878Z,41.97
2023-02-22T00:06:26.724Z,37.90
2023-02-22T00:07:29.753Z,41.72
2023-02-22T00:08:34.268Z,37.92
2023-02-22T00:09:36.063Z,38.45
2023-02-22T00:10:39.505Z,42.90
2023-02-22T00:11:46.497Z,39.15
2023-02-22T00:12:52.483Z,38.58
2023-02-22T00:13:57.333Z,35.33
2023-02-22T00:15:00.236Z,31.73
2023-02-22T00:16:02.468Z,39.92
2023-02-22T00:17:05.262Z,39.78
2023-02-22T00:18:07.732Z,43.47
2023-02-22T00:19:10.732Z,39.47
2023-02-22T00:20:15.474Z,41.35
2023-02-22T00:21:19.522Z,40.00
2023-02-22T00:22:21.306Z,42.45
2023-02-22T00:23:25.365Z,47.10
2023-02-22T00:24:29.419Z,42.40
2023-02-22T00:25:32.482Z,48.28
2023-02-22T00:26:55.888Z,42.55
2023-02-22T00:28:00.354Z,47.80
2023-02-22T00:29:03.079Z,50.00
2023-02-22T00:30:06.003Z,42.70
2023-02-22T00:31:09.479Z,39.53
2023-02-22T00:32:11.332Z,41.20
2023-02-22T00:33:17.307Z,45.25
2023-02-22T00:34:19.190Z,43.90
2023-02-22T00:35:23.757Z,43.85
2023-02-22T00:36:27.320Z,37.95
2023-02-22T00:37:31.676Z,36.28
2023-02-22T00:38:33.459Z,62.92
2023-02-22T00:39:38.251Z,48.00
2023-02-22T00:40:40.389Z,46.55
2023-02-22T00:41:43.312Z,44.33
2023-02-22T00:42:46.326Z,39.08
2023-02-22T00:43:50.769Z,39.17
2023-02-22T00:44:54.420Z,36.28
2023-02-22T00:45:58.348Z,40.47
2023-02-22T00:47:00.570Z,37.78
2023-02-22T00:48:05.388Z,33.78
2023-02-22T00:49:07.221Z,37.15
2023-02-22T00:50:11.047Z,35.47
2023-02-22T00:51:13.265Z,33.78
2023-02-22T00:52:16.003Z,34.30
2023-02-22T00:53:17.976Z,32.42
2023-02-22T00:54:20.764Z,37.08
2023-02-22T00:55:24.971Z,33.10
2023-02-22T00:56:27.813Z,36.63
2023-02-22T00:57:29.863Z,29.08
2023-02-22T00:58:32.865Z,38.67
2023-02-22T00:59:36.691Z,34.33
2023-02-22T01:00:41.740Z,35.70
2023-02-22T01:01:43.609Z,35.80
2023-02-22T01:02:50.749Z,33.95
2023-02-22T01:03:52.812Z,38.88
2023-02-22T01:04:56.500Z,36.42
2023-02-22T01:05:58.850Z,42.70
2023-02-22T01:07:01.675Z,32.30
2023-02-22T01:08:06.597Z,34.78
2023-02-22T01:09:10.191Z,30.50
2023-02-22T01:10:12.889Z,30.25
2023-02-22T01:11:17.191Z,31.58
2023-02-22T01:12:21.131Z,33.97
2023-02-22T01:13:24.861Z,30.25
2023-02-22T01:14:28.120Z,28.67
2023-02-22T01:15:33.739Z,32.30
2023-02-22T01:16:36.010Z,27.92
2023-02-22T01:17:41.654Z,30.67
2023-02-22T01:18:44.083Z,28.88
2023-02-22T01:19:46.812Z,31.38
2023-02-22T01:20:48.574Z,27.00
2023-02-22T01:21:51.602Z,31.95
2023-02-22T01:22:55.275Z,33.70
2023-02-22T01:23:58.678Z,32.45
2023-02-22T01:25:01.096Z,34.38
2023-02-22T01:26:05.776Z,34.85
2023-02-22T01:27:07.602Z,27.80
2023-02-22T01:28:10.808Z,37.88
2023-02-22T01:29:15.108Z,36.15
2023-02-22T01:30:21.340Z,32.80
2023-02-22T01:31:24.794Z,33.08
2023-02-22T01:32:27.698Z,28.88
2023-02-22T01:33:32.280Z,30.88
2023-02-22T01:34:34.832Z,29.00
2023-02-22T01:35:40.782Z,32.60
2023-02-22T01:36:42.921Z,36.58
2023-02-22T01:37:46.857Z,34.15
2023-02-22T01:38:48.730Z,33.22
2023-02-22T01:39:51.488Z,45.15
2023-02-22T01:40:54.301Z,55.33
2023-02-22T01:41:56.257Z,40.42
2023-02-22T01:43:01.114Z,46.15
2023-02-22T01:44:18.548Z,49.08
2023-02-22T01:45:45.110Z,42.50
2023-02-22T01:46:48.366Z,28.55
2023-02-22T01:47:51.099Z,37.55
2023-02-22T01:48:56.399Z,35.95
2023-02-22T01:50:00.087Z,31.85
2023-02-22T01:51:10.589Z,35.28
2023-02-22T01:52:17.053Z,33.83
2023-02-22T01:53:20.654Z,31.38
2023-02-22T01:54:26.273Z,29.80
2023-02-22T01:55:29.275Z,28.65
2023-02-22T01:56:35.208Z,39.78
2023-02-22T01:57:39.190Z,35.15
2023-02-22T01:58:42.773Z,32.55
2023-02-22T01:59:48.683Z,32.58
2023-02-22T02:00:50.961Z,36.10
2023-02-22T02:01:55.238Z,39.30
2023-02-22T02:03:02.648Z,30.48
2023-02-22T02:04:07.524Z,37.38
2023-02-22T02:05:09.697Z,38.00
2023-02-22T02:06:15.132Z,35.63
2023-02-22T02:07:19.272Z,38.53
2023-02-22T02:08:28.571Z,43.45
2023-02-22T02:09:35.970Z,36.47
2023-02-22T02:10:38.849Z,33.45
2023-02-22T02:11:42.134Z,44.22
2023-02-22T02:12:47.933Z,46.50
2023-02-22T02:13:51.730Z,54.03
2023-02-22T02:14:53.564Z,53.03
2023-02-22T02:15:57.358Z,59.47
2023-02-22T02:17:01.552Z,57.13
2023-02-22T02:18:07.962Z,52.17
2023-02-22T02:19:17.161Z,50.80
2023-02-22T02:20:26.214Z,54.25
2023-02-22T02:22:02.247Z,51.85
2023-02-22T02:23:19.253Z,48.50
2023-02-22T02:24:57.458Z,46.08
2023-02-22T02:26:21.062Z,55.65
2023-02-22T02:27:25.460Z,59.10
2023-02-22T02:29:01.365Z,57.03
2023-02-22T02:30:47.100Z,52.90
2023-02-22T02:32:14.709Z,46.03
2023-02-22T02:33:21.252Z,51.45
2023-02-22T02:34:28.928Z,46.70
2023-02-22T02:35:40.892Z,54.33
2023-02-22T02:36:47.615Z,56.40
2023-02-22T02:37:57.655Z,48.47
2023-02-22T02:39:05.830Z,51.38
2023-02-22T02:40:17.804Z,47.10
2023-02-22T02:41:25.282Z,46.40
2023-02-22T02:42:33.830Z,45.85
2023-02-22T02:43:43.356Z,49.30
2023-02-22T02:44:48.803Z,42.42
2023-02-22T02:45:57.074Z,46.47
2023-02-22T02:47:03.327Z,58.08
2023-02-22T02:48:07.349Z,57.75
2023-02-22T02:49:12.087Z,47.55
2023-02-22T02:50:18.347Z,52.10
2023-02-22T02:51:21.593Z,63.92
2023-02-22T02:52:27.145Z,61.53
2023-02-22T02:53:33.789Z,66.70
2023-02-22T02:54:40.877Z,59.97
2023-02-22T02:55:43.240Z,58.47
2023-02-22T02:56:47.025Z,55.53
2023-02-22T02:57:48.954Z,52.08
2023-02-22T02:58:53.139Z,59.10
2023-02-22T02:59:58.034Z,45.90
2023-02-22T03:01:04.421Z,47.38
2023-02-22T03:02:17.223Z,46.67
2023-02-22T03:03:47.578Z,44.63
2023-02-22T03:05:01.390Z,45.47
2023-02-22T03:06:26.836Z,48.40
2023-02-22T03:07:35.019Z,53.05
2023-02-22T03:08:43.079Z,36.28
2023-02-22T03:09:55.009Z,45.17
2023-02-22T03:11:03.632Z,50.80
2023-02-22T03:12:15.359Z,46.33
2023-02-22T03:13:25.095Z,47.33
2023-02-22T03:14:37.048Z,42.45
2023-02-22T03:15:46.133Z,43.55
2023-02-22T03:16:52.346Z,43.05
2023-02-22T03:18:03.146Z,56.08
2023-02-22T03:19:09.487Z,47.78
2023-02-22T03:20:14.561Z,52.25
2023-02-22T03:21:23.657Z,49.10
2023-02-22T03:22:28.952Z,40.08
2023-02-22T03:23:36.093Z,52.78
2023-02-22T03:24:42.933Z,49.50
2023-02-22T03:25:50.330Z,48.45
2023-02-22T03:26:58.444Z,47.25
2023-02-22T03:28:03.889Z,51.90
2023-02-22T03:29:07.733Z,54.40
2023-02-22T03:30:13.371Z,43.83
2023-02-22T03:31:19.322Z,44.92
2023-02-22T03:32:23.818Z,48.35
2023-02-22T03:33:33.878Z,41.15
2023-02-22T03:34:40.769Z,45.67
2023-02-22T03:35:48.134Z,48.88
2023-02-22T03:36:56.864Z,47.33
2023-02-22T03:38:02.978Z,41.55
2023-02-22T03:39:08.855Z,39.88
2023-02-22T03:40:14.021Z,44.47
2023-02-22T03:41:21.177Z,39.63
2023-02-22T03:42:25.502Z,39.67
2023-02-22T03:43:31.630Z,38.40
2023-02-22T03:44:38.690Z,39.50
2023-02-22T03:45:44.614Z,42.53
2023-02-22T03:46:48.806Z,37.58
2023-02-22T03:47:54.857Z,35.42
2023-02-22T03:49:00.319Z,44.67
2023-02-22T03:50:10.706Z,38.92
2023-02-22T03:51:16.708Z,42.13
2023-02-22T03:52:23.428Z,43.50
2023-02-22T03:53:25.491Z,40.05
2023-02-22T03:54:28.697Z,46.22
2023-02-22T03:55:31.773Z,34.25
2023-02-22T03:56:38.615Z,41.90
2023-02-22T03:57:43.175Z,41.67
2023-02-22T03:58:48.882Z,40.58
2023-02-22T03:59:50.870Z,40.22
2023-02-22T04:00:53.975Z,38.38
2023-02-22T04:01:56.828Z,34.97
2023-02-22T04:03:00.084Z,35.47
2023-02-22T04:04:03.764Z,37.83
2023-02-22T04:05:08.389Z,35.88
2023-02-22T04:06:10.793Z,41.65
2023-02-22T04:07:13.936Z,35.28
2023-02-22T04:08:16.254Z,41.10
2023-02-22T04:09:19.425Z,36.25
2023-02-22T04:10:22.442Z,37.67
2023-02-22T04:11:25.651Z,36.30
2023-02-22T04:12:27.494Z,42.60
2023-02-22T04:13:34.501Z,50.13
2023-02-22T04:14:36.319Z,46.13
2023-02-22T04:15:39.118Z,46.75
2023-02-22T04:16:43.714Z,39.83
2023-02-22T04:17:46.683Z,42.13
2023-02-22T04:18:49.934Z,38.90
2023-02-22T04:19:55.975Z,38.05
2023-02-22T04:20:59.633Z,41.83
2023-02-22T04:22:10.334Z,42.40
2023-02-22T04:23:12.399Z,46.28
2023-02-22T04:24:17.323Z,45.67
2023-02-22T04:25:19.236Z,49.05
2023-02-22T04:26:23.579Z,45.42
2023-02-22T04:27:29.886Z,41.25
2023-02-22T04:28:33.630Z,47.20
2023-02-22T04:29:45.178Z,49.28
2023-02-22T04:30:48.070Z,50.85
2023-02-22T04:31:52.332Z,42.95
2023-02-22T04:32:56.234Z,40.30
2023-02-22T04:33:58.268Z,46.53
2023-02-22T04:35:07.281Z,43.53
2023-02-22T04:36:10.716Z,46.72
2023-02-22T04:37:14.391Z,54.28
2023-02-22T04:38:16.233Z,54.70
2023-02-22T04:39:19.154Z,42.92
2023-02-22T04:40:21.311Z,37.00
2023-02-22T04:41:25.623Z,40.65
2023-02-22T04:42:27.756Z,48.78
2023-02-22T04:43:31.407Z,41.17
2023-02-22T04:44:40.677Z,39.78
2023-02-22T04:45:43.393Z,45.00
2023-02-22T04:46:46.720Z,44.25
2023-02-22T04:47:50.816Z,41.60
2023-02-22T04:48:53.000Z,46.47
2023-02-22T04:50:00.707Z,42.17
2023-02-22T04:51:04.204Z,46.47
2023-02-22T04:52:08.140Z,45.10
2023-02-22T04:53:12.977Z,49.55
2023-02-22T04:54:17.396Z,49.85
2023-02-22T04:55:22.509Z,41.38
2023-02-22T04:56:26.171Z,39.15
2023-02-22T04:57:27.955Z,45.47
2023-02-22T04:58:31.774Z,34.90
2023-02-22T04:59:34.311Z,37.03
2023-02-22T05:00:37.980Z,37.15
2023-02-22T05:01:40.878Z,44.97
2023-02-22T05:02:43.675Z,44.40
2023-02-22T05:03:45.487Z,44.80
2023-02-22T05:04:48.325Z,44.65
2023-02-22T05:05:51.891Z,37.90
2023-02-22T05:06:55.985Z,41.28
2023-02-22T05:07:57.788Z,38.75
2023-02-22T05:09:00.600Z,38.63
2023-02-22T05:10:02.765Z,43.03
2023-02-22T05:11:06.183Z,48.63
2023-02-22T05:12:08.188Z,49.45
2023-02-22T05:13:11.132Z,53.20
2023-02-22T05:14:12.921Z,48.28
2023-02-22T05:15:17.786Z,41.10
2023-02-22T05:16:19.789Z,48.65
2023-02-22T05:17:22.549Z,50.72
2023-02-22T05:18:24.552Z,42.10
2023-02-22T05:19:27.276Z,41.63
2023-02-22T05:20:31.405Z,45.97
2023-02-22T05:21:34.320Z,48.65
2023-02-22T05:22:37.437Z,46.47
2023-02-22T05:23:41.398Z,51.47
2023-02-22T05:24:43.869Z,47.25
2023-02-22T05:25:46.927Z,54.53
2023-02-22T05:26:51.211Z,43.90
2023-02-22T05:27:54.662Z,44.95
2023-02-22T05:28:56.459Z,49.42
2023-02-22T05:29:59.456Z,52.38
2023-02-22T05:31:01.308Z,50.95
2023-02-22T05:32:04.267Z,54.78
2023-02-22T05:33:06.594Z,53.58
2023-02-22T05:34:09.420Z,50.67
2023-02-22T05:35:11.172Z,55.15
2023-02-22T05:36:13.923Z,55.97
2023-02-22T05:37:15.855Z,53.08
2023-02-22T05:38:20.014Z,67.78
2023-02-22T05:39:21.886Z,57.35
2023-02-22T05:40:26.704Z,52.60
2023-02-22T05:41:28.858Z,54.22
2023-02-22T05:42:31.660Z,50.42
2023-02-22T05:43:33.542Z,54.40
2023-02-22T05:44:36.327Z,64.32
2023-02-22T05:45:38.155Z,55.00
2023-02-22T05:46:41.001Z,59.88
2023-02-22T05:47:42.810Z,59.53
2023-02-22T05:48:45.570Z,70.30
2023-02-22T05:49:47.833Z,57.92
2023-02-22T05:50:50.946Z,53.65
2023-02-22T05:51:52.702Z,53.15
2023-02-22T05:52:56.350Z,55.47
2023-02-22T05:53:59.555Z,57.65
2023-02-22T05:55:02.281Z,52.08
2023-02-22T05:56:04.787Z,54.58
2023-02-22T05:57:07.705Z,53.88
2023-02-22T05:58:09.787Z,64.93
2023-02-22T05:59:12.595Z,67.70
2023-02-22T06:00:17.883Z,58.22
2023-02-22T06:01:21.065Z,74.78
2023-02-22T06:02:24.186Z,92.22
2023-02-22T06:03:25.953Z,120.40
2023-02-22T06:04:28.835Z,116.68
2023-02-22T06:05:31.626Z,95.43
2023-02-22T06:06:34.377Z,100.57
2023-02-22T06:07:36.215Z,96.28
2023-02-22T06:08:39.070Z,93.45
2023-02-22T06:09:42.325Z,89.78
2023-02-22T06:10:45.296Z,97.15
2023-02-22T06:11:47.157Z,89.28
2023-02-22T06:12:50.787Z,102.43
2023-02-22T06:13:54.541Z,97.93
2023-02-22T06:14:56.449Z,96.78
2023-02-22T06:15:59.282Z,107.78
2023-02-22T06:17:02.041Z,91.57
2023-02-22T06:18:05.192Z,96.03
2023-02-22T06:19:06.980Z,94.72
2023-02-22T06:20:11.213Z,90.88
2023-02-22T06:21:14.543Z,102.32
2023-02-22T06:22:18.198Z,92.00
2023-02-22T06:23:20.912Z,89.72
2023-02-22T06:24:23.631Z,96.60
2023-02-22T06:25:31.149Z,103.50
2023-02-22T06:26:32.911Z,114.32
2023-02-22T06:27:54.309Z,123.70
2023-02-22T06:28:56.100Z,120.78
2023-02-22T06:29:58.969Z,99.97
2023-02-22T06:31:00.852Z,107.78
2023-02-22T06:32:03.722Z,100.53
2023-02-22T06:33:05.588Z,93.50
2023-02-22T06:34:08.379Z,97.28
2023-02-22T06:35:10.527Z,91.68
2023-02-22T06:36:13.264Z,91.70
2023-02-22T06:37:15.253Z,86.05
2023-02-22T06:38:22.815Z,82.32
2023-02-22T06:39:25.571Z,82.00
2023-02-22T06:40:29.860Z,91.97
2023-02-22T06:41:31.685Z,101.60
2023-02-22T06:42:34.471Z,89.38
2023-02-22T06:43:37.315Z,92.78
2023-02-22T06:44:39.153Z,84.97
2023-02-22T06:45:41.973Z,85.75
2023-02-22T06:46:48.344Z,76.20
2023-02-22T06:47:51.087Z,83.18
2023-02-22T06:48:52.867Z,82.45
2023-02-22T06:49:56.382Z,89.03
2023-02-22T06:50:58.187Z,104.15
2023-02-22T06:52:00.916Z,95.88
2023-02-22T06:53:03.923Z,90.70
2023-02-22T06:54:06.184Z,86.30
2023-02-22T06:55:09.109Z,97.47
2023-02-22T06:56:13.292Z,96.50
2023-02-22T06:57:15.394Z,81.88
2023-02-22T06:58:18.138Z,82.85
2023-02-22T06:59:20.093Z,79.95
2023-02-22T07:00:25.585Z,80.10
2023-02-22T07:01:28.546Z,77.60
2023-02-22T07:02:30.458Z,90.80
2023-02-22T07:03:33.348Z,105.85
2023-02-22T07:04:37.174Z,104.68
2023-02-22T07:05:39.151Z,116.22
2023-02-22T07:06:46.925Z,101.28
2023-02-22T07:07:49.604Z,101.93
2023-02-22T07:08:52.433Z,107.68
2023-02-22T07:09:54.329Z,100.20
2023-02-22T07:10:57.216Z,93.95
2023-02-22T07:12:01.043Z,90.80
2023-02-22T07:13:04.141Z,117.50
2023-02-22T07:14:06.063Z,136.68
2023-02-22T07:15:09.918Z,101.65
2023-02-22T07:16:12.705Z,93.03
2023-02-22T07:17:15.484Z,90.88
2023-02-22T07:18:17.376Z,84.07
2023-02-22T07:19:20.758Z,87.13
2023-02-22T07:20:24.392Z,71.78
2023-02-22T07:21:27.816Z,78.95
2023-02-22T07:22:30.790Z,77.53
2023-02-22T07:23:33.554Z,84.22
2023-02-22T07:24:35.381Z,90.63
2023-02-22T07:25:38.136Z,77.13
2023-02-22T07:26:40.690Z,80.22
2023-02-22T07:27:44.962Z,86.88
2023-02-22T07:28:47.176Z,73.55
2023-02-22T07:29:49.934Z,85.57
2023-02-22T07:30:51.788Z,76.38
2023-02-22T07:31:54.581Z,75.72
2023-02-22T07:32:57.144Z,65.57
2023-02-22T07:33:59.946Z,62.03
2023-02-22T07:35:02.908Z,61.88
2023-02-22T07:36:06.413Z,67.78
2023-02-22T07:37:08.213Z,61.50
2023-02-22T07:38:11.080Z,52.60
2023-02-22T07:39:12.881Z,59.42
2023-02-22T07:40:16.690Z,59.50
2023-02-22T07:41:19.686Z,54.33
2023-02-22T07:42:21.541Z,57.83
2023-02-22T07:43:27.283Z,57.25
2023-02-22T07:44:29.106Z,53.53
2023-02-22T07:45:33.395Z,40.08
2023-02-22T07:46:35.336Z,40.42
2023-02-22T07:47:38.094Z,41.75
2023-02-22T07:48:40.874Z,39.92
2023-02-22T07:49:42.763Z,49.60
2023-02-22T07:50:46.127Z,47.80
2023-02-22T07:51:47.915Z,37.42
2023-02-22T07:52:52.479Z,42.38
2023-02-22T07:53:55.578Z,36.72
2023-02-22T07:54:57.458Z,36.30
2023-02-22T07:56:01.096Z,38.88
2023-02-22T07:57:03.381Z,39.83
2023-02-22T07:58:07.473Z,41.35
2023-02-22T07:59:10.682Z,36.70
2023-02-22T08:00:16.334Z,45.42
2023-02-22T08:01:19.293Z,37.22
2023-02-22T08:02:21.880Z,36.72
2023-02-22T08:03:26.524Z,37.80
2023-02-22T08:04:28.337Z,40.95
2023-02-22T08:05:32.602Z,36.53
2023-02-22T08:06:35.380Z,39.63
2023-02-22T08:07:37.239Z,29.40
2023-02-22T08:08:40.537Z,36.25
2023-02-22T08:09:42.361Z,34.25
2023-02-22T08:10:45.449Z,32.80
2023-02-22T08:11:47.260Z,35.33
2023-02-22T08:12:50.388Z,34.35
2023-02-22T08:13:53.188Z,29.33
2023-02-22T08:14:56.674Z,33.05
2023-02-22T08:15:59.709Z,41.97
2023-02-22T08:17:01.520Z,44.38
2023-02-22T08:18:09.022Z,44.13
2023-02-22T08:19:10.804Z,43.58
2023-02-22T08:20:13.913Z,42.17
2023-02-22T08:21:17.718Z,36.17
2023-02-22T08:22:21.951Z,35.97
2023-02-22T08:23:26.938Z,32.22
2023-02-22T08:24:28.982Z,45.88
2023-02-22T08:25:32.175Z,41.20
2023-02-22T08:26:34.945Z,66.30
2023-02-22T08:27:36.745Z,34.47
2023-02-22T08:28:39.588Z,35.67
2023-02-22T08:29:41.376Z,38.70
2023-02-22T08:30:45.788Z,38.10
2023-02-22T08:31:51.826Z,40.20
2023-02-22T08:32:54.031Z,34.38
2023-02-22T08:33:57.096Z,30.88
2023-02-22T08:34:58.967Z,26.27
2023-02-22T08:36:02.311Z,27.08
2023-02-22T08:37:04.523Z,28.10
2023-02-22T08:38:08.368Z,27.60
2023-02-22T08:39:10.501Z,18.27
2023-02-22T08:40:15.066Z,21.38
2023-02-22T08:41:18.545Z,24.40
2023-02-22T08:42:20.526Z,24.48
2023-02-22T08:43:23.999Z,26.83
2023-02-22T08:44:25.870Z,20.70
2023-02-22T08:45:29.172Z,23.88
2023-02-22T08:46:33.452Z,27.45
2023-02-22T08:47:35.295Z,23.38
2023-02-22T08:48:38.281Z,27.80
2023-02-22T08:49:40.160Z,27.42
2023-02-22T08:50:44.230Z,27.20
2023-02-22T08:51:47.215Z,29.95
2023-02-22T08:52:51.246Z,25.38
2023-02-22T08:53:54.780Z,27.63
2023-02-22T08:54:56.566Z,28.33
2023-02-22T08:55:59.541Z,18.75
2023-02-22T08:57:01.354Z,20.73
2023-02-22T08:58:05.890Z,13.35
2023-02-22T08:59:07.972Z,17.95
2023-02-22T09:00:12.063Z,18.52
2023-02-22T09:01:19.284Z,17.67
2023-02-22T09:02:25.371Z,21.70
2023-02-22T09:03:28.138Z,19.55
2023-02-22T09:04:29.979Z,19.98
2023-02-22T09:05:33.353Z,19.83
2023-02-22T09:06:36.256Z,14.05
2023-02-22T09:07:42.232Z,15.70
2023-02-22T09:08:45.171Z,17.30
2023-02-22T09:09:46.975Z,13.98
2023-02-22T09:10:50.990Z,15.15
2023-02-22T09:11:53.329Z,12.43
2023-02-22T09:12:56.724Z,14.77
2023-02-22T09:13:59.615Z,11.05
2023-02-22T09:15:01.555Z,13.15
2023-02-22T09:16:04.671Z,12.57
2023-02-22T09:17:06.503Z,10.38
2023-02-22T09:18:42.310Z,12.88
2023-02-22T09:19:45.380Z,13.30
2023-02-22T09:20:48.430Z,12.50
2023-02-22T09:21:53.472Z,10.30
2023-02-22T09:22:56.421Z,18.20
2023-02-22T09:24:01.371Z,13.40
2023-02-22T09:25:15.872Z,10.80
2023-02-22T09:26:19.690Z,8.10
2023-02-22T09:27:21.513Z,6.78
2023-02-22T09:28:24.948Z,10.00
2023-02-22T09:29:27.779Z,9.23
2023-02-22T09:30:32.878Z,8.32
2023-02-22T09:31:36.776Z,8.02
2023-02-22T09:32:38.897Z,8.20
2023-02-22T09:33:43.859Z,9.93
2023-02-22T09:34:46.939Z,12.23
2023-02-22T09:35:50.998Z,11.32
2023-02-22T09:36:52.753Z,14.30
2023-02-22T09:37:56.862Z,16.38
2023-02-22T09:38:59.062Z,27.35
2023-02-22T09:40:01.893Z,21.90
2023-02-22T09:41:21.438Z,15.38
2023-02-22T09:42:27.885Z,12.60
2023-02-22T09:43:40.521Z,11.90
2023-02-22T09:44:45.640Z,9.75
2023-02-22T09:46:12.418Z,9.88
2023-02-22T09:47:18.146Z,11.95
2023-02-22T09:48:22.312Z,11.38
2023-02-22T09:49:31.300Z,10.27
2023-02-22T09:50:35.954Z,10.43
2023-02-22T09:52:01.054Z,10.73
2023-02-22T09:53:05.772Z,10.55
2023-02-22T09:54:14.904Z,14.38
2023-02-22T09:55:28.774Z,9.93
2023-02-22T09:56:33.843Z,14.27
2023-02-22T09:57:40.515Z,12.45
2023-02-22T09:58:45.992Z,11.20
2023-02-22T10:00:12.844Z,10.32
2023-02-22T10:01:23.878Z,11.98
2023-02-22T10:02:29.721Z,10.88
2023-02-22T10:03:36.781Z,17.02
2023-02-22T10:04:44.399Z,10.02
2023-02-22T10:05:52.941Z,16.92
2023-02-22T10:07:05.988Z,17.23
2023-02-22T10:08:12.754Z,11.43
2023-02-22T10:09:16.020Z,10.07
2023-02-22T10:10:19.350Z,15.73
2023-02-22T10:11:37.584Z,10.10
2023-02-22T10:12:44.334Z,12.32
2023-02-22T10:13:51.888Z,11.88
2023-02-22T10:15:16.157Z,15.82
2023-02-22T10:16:22.241Z,12.27
2023-02-22T10:17:29.635Z,11.80
2023-02-22T10:18:44.457Z,7.57
2023-02-22T10:19:55.847Z,11.57
2023-02-22T10:21:02.631Z,10.05
2023-02-22T10:22:22.740Z,13.43
2023-02-22T10:23:29.963Z,10.85
2023-02-22T10:24:39.765Z,9.95
2023-02-22T10:25:42.978Z,13.43
2023-02-22T10:26:46.949Z,12.52
2023-02-22T10:27:53.174Z,11.88
2023-02-22T10:28:59.810Z,11.98
2023-02-22T10:30:22.158Z,14.40
2023-02-22T10:31:31.586Z,10.25
2023-02-22T10:32:43.340Z,13.10
2023-02-22T10:33:48.657Z,12.18
2023-02-22T10:34:52.946Z,15.07
2023-02-22T10:35:56.551Z,13.85
2023-02-22T10:37:03.505Z,13.57
2023-02-22T10:38:16.904Z,18.23
2023-02-22T10:39:27.397Z,14.25
2023-02-22T10:40:35.853Z,10.40
2023-02-22T10:41:44.567Z,12.23
2023-02-22T10:42:47.299Z,13.63
2023-02-22T10:43:50.130Z,11.20
2023-02-22T10:44:52.076Z,10.60
2023-02-22T10:45:56.789Z,12.35
2023-02-22T10:46:59.770Z,14.35
2023-02-22T10:48:08.513Z,12.75
2023-02-22T10:49:35.893Z,12.45
2023-02-22T10:50:41.024Z,12.32
2023-02-22T10:51:43.796Z,10.43
2023-02-22T10:52:45.625Z,12.18
2023-02-22T10:53:57.506Z,13.25
2023-02-22T10:55:14.553Z,10.48
2023-02-22T10:56:21.332Z,11.98
2023-02-22T10:57:26.987Z,10.13
2023-02-22T10:58:29.746Z,11.25
2023-02-22T10:59:33.390Z,14.23
2023-02-22T11:00:38.240Z,17.85
2023-02-22T11:01:40.814Z,17.33
2023-02-22T11:02:52.343Z,33.30
2023-02-22T11:03:59.336Z,27.25
2023-02-22T11:05:03.535Z,14.43
2023-02-22T11:06:19.207Z,16.30
2023-02-22T11:07:27.145Z,14.43
2023-02-22T11:08:32.204Z,11.48
2023-02-22T11:09:46.957Z,10.85
2023-02-22T11:10:49.681Z,12.00
2023-02-22T11:12:09.139Z,9.15
2023-02-22T11:13:17.483Z,10.48
2023-02-22T11:14:27.961Z,9.50
2023-02-22T11:15:30.035Z,12.75
2023-02-22T11:16:34.159Z,7.47
2023-02-22T11:17:37.405Z,12.13
2023-02-22T11:18:39.156Z,12.20
2023-02-22T11:19:48.019Z,10.75
2023-02-22T11:21:00.613Z,15.45
2023-02-22T11:22:11.951Z,12.27
2023-02-22T11:23:14.830Z,10.30
2023-02-22T11:25:21.923Z,10.88
2023-02-22T11:26:24.699Z,9.15
2023-02-22T11:27:39.117Z,16.13
2023-02-22T11:28:49.162Z,9.35
2023-02-22T11:29:52.789Z,10.32
2023-02-22T11:30:55.583Z,12.05
2023-02-22T11:31:59.188Z,11.02
2023-02-22T11:33:11.311Z,10.85
2023-02-22T11:34:28.940Z,10.95
2023-02-22T11:35:35.383Z,12.77
2023-02-22T11:36:40.891Z,12.20
2023-02-22T11:37:44.490Z,9.57
2023-02-22T11:38:56.177Z,12.25
2023-02-22T11:40:07.277Z,11.77
2023-02-22T11:41:18.588Z,13.90
2023-02-22T11:42:23.125Z,13.00
2023-02-22T11:43:25.985Z,10.35
2023-02-22T11:44:30.741Z,7.15
2023-02-22T11:45:33.001Z,13.27
2023-02-22T11:46:37.444Z,21.42
2023-02-22T11:47:54.999Z,15.73
2023-02-22T11:48:58.718Z,9.77
2023-02-22T11:50:02.227Z,12.85
2023-02-22T11:51:14.603Z,13.43
2023-02-22T11:52:22.881Z,14.20
2023-02-22T11:53:29.884Z,15.80
2023-02-22T11:54:53.559Z,11.27
2023-02-22T11:56:11.152Z,9.98
2023-02-22T11:57:33.810Z,9.73
2023-02-22T11:58:42.406Z,8.48
2023-02-22T11:59:55.624Z,8.45
2023-02-22T12:01:00.727Z,17.65
2023-02-22T12:02:18.796Z,13.73
2023-02-22T12:03:32.644Z,11.88
2023-02-22T12:05:01.304Z,8.13
2023-02-22T12:06:11.782Z,11.73
2023-02-22T12:07:22.291Z,10.50
2023-02-22T12:08:34.308Z,13.65
2023-02-22T12:09:41.747Z,11.63
2023-02-22T12:10:55.259Z,12.50
2023-02-22T12:12:06.089Z,9.00
2023-02-22T12:13:21.875Z,14.55
2023-02-22T12:14:27.820Z,6.00
2023-02-22T12:15:33.124Z,10.20
2023-02-22T12:16:44.160Z,11.38
2023-02-22T12:18:00.696Z,10.20
2023-02-22T12:19:11.302Z,10.35
2023-02-22T12:20:21.916Z,12.27
2023-02-22T12:21:28.413Z,13.63
2023-02-22T12:22:33.456Z,36.38
2023-02-22T12:23:44.794Z,15.68
2023-02-22T12:24:57.948Z,16.10
2023-02-22T12:26:11.860Z,23.67
2023-02-22T12:27:17.704Z,16.05
2023-02-22T12:28:24.950Z,20.88
2023-02-22T12:29:31.240Z,13.23
2023-02-22T12:30:37.291Z,12.82
2023-02-22T12:31:45.454Z,22.35
2023-02-22T12:32:49.781Z,23.20
2023-02-22T12:33:59.817Z,19.48
2023-02-22T12:35:06.494Z,21.27
2023-02-22T12:36:11.496Z,12.55
2023-02-22T12:37:18.933Z,14.02
2023-02-22T12:38:24.401Z,12.48
2023-02-22T12:39:52.737Z,11.73
2023-02-22T12:41:01.505Z,16.98
2023-02-22T12:42:09.728Z,11.95
2023-02-22T12:43:16.965Z,15.10
2023-02-22T12:44:22.247Z,21.33
2023-02-22T12:45:31.785Z,20.02
2023-02-22T12:46:37.486Z,12.63
2023-02-22T12:47:46.531Z,13.40
2023-02-22T12:48:53.317Z,16.55
2023-02-22T12:50:00.437Z,12.48
2023-02-22T12:51:22.715Z,14.13
2023-02-22T12:52:36.253Z,18.88
2023-02-22T12:53:42.045Z,10.98
2023-02-22T12:54:48.109Z,13.43
2023-02-22T12:55:54.168Z,9.95
2023-02-22T12:57:00.823Z,16.17
2023-02-22T12:58:08.125Z,14.50
2023-02-22T12:59:15.954Z,11.43
2023-02-22T13:00:23.241Z,16.70
2023-02-22T13:01:30.062Z,11.30
2023-02-22T13:02:37.012Z,13.40
2023-02-22T13:03:40.241Z,13.73
2023-02-22T13:04:43.079Z,14.63
2023-02-22T13:05:51.256Z,15.57
2023-02-22T13:07:01.144Z,11.48
2023-02-22T13:08:13.796Z,15.55
2023-02-22T13:09:48.416Z,17.50
2023-02-22T13:11:03.813Z,13.45
2023-02-22T13:12:10.654Z,10.23
2023-02-22T13:13:19.028Z,15.27
2023-02-22T13:14:38.524Z,16.20
2023-02-22T13:15:45.918Z,13.80
2023-02-22T13:16:52.700Z,15.90
2023-02-22T13:18:01.792Z,16.17
2023-02-22T13:19:18.635Z,11.82
2023-02-22T13:20:24.016Z,14.50
2023-02-22T13:21:32.286Z,12.73
2023-02-22T13:22:58.837Z,13.98
2023-02-22T13:24:05.383Z,14.80
2023-02-22T13:25:14.302Z,15.60
2023-02-22T13:26:20.625Z,13.23
2023-02-22T13:27:26.091Z,17.33
2023-02-22T13:28:33.032Z,12.48
2023-02-22T13:29:38.087Z,13.68
2023-02-22T13:30:45.462Z,10.95
2023-02-22T13:31:59.304Z,13.73
2023-02-22T13:33:26.080Z,18.67
2023-02-22T13:34:40.172Z,21.50
2023-02-22T13:35:51.772Z,16.85
2023-02-22T13:37:06.803Z,18.50
2023-02-22T13:38:49.584Z,16.90
2023-02-22T13:40:06.648Z,24.65
2023-02-22T13:41:27.890Z,18.25
2023-02-22T13:42:43.944Z,22.08
2023-02-22T13:44:04.907Z,20.08
2023-02-22T13:45:27.458Z,21.90
2023-02-22T13:47:06.122Z,17.98
2023-02-22T13:48:17.488Z,23.02
2023-02-22T13:49:28.101Z,13.43
2023-02-22T13:50:41.434Z,16.15
2023-02-22T13:51:46.945Z,17.92
2023-02-22T13:52:50.223Z,17.67
2023-02-22T13:53:55.956Z,19.50
2023-02-22T13:55:00.873Z,14.27
2023-02-22T13:56:02.890Z,19.15
2023-02-22T13:57:19.019Z,20.05
2023-02-22T13:58:20.997Z,27.25
2023-02-22T13:59:27.747Z,18.00
2023-02-22T14:00:41.685Z,18.08
2023-02-22T14:01:46.702Z,18.80
2023-02-22T14:03:02.173Z,17.23
2023-02-22T14:04:21.683Z,18.35
2023-02-22T14:05:50.998Z,18.13
2023-02-22T14:06:54.094Z,18.45
2023-02-22T14:07:56.200Z,18.75
2023-02-22T14:08:58.976Z,15.02
2023-02-22T14:10:01.718Z,27.25
2023-02-22T14:11:05.905Z,15.43
2023-02-22T14:12:10.079Z,15.15
2023-02-22T14:13:13.025Z,17.55